createdAt,value
2022-11-22T00:06:17.533Z,19.62
2022-11-22T00:13:37.137Z,19.63
2022-11-22T00:21:00.110Z,19.63
2022-11-22T00:28:36.903Z,19.62
2022-11-22T00:36:06.693Z,19.62
2022-11-22T00:43:35.567Z,19.63
2022-11-22T00:51:02.916Z,19.59
2022-11-22T00:58:41.277Z,19.52
2022-11-22T01:06:05.948Z,19.52
2022-11-22T01:13:35.403Z,19.56
2022-11-22T01:21:10.711Z,19.53
2022-11-22T01:28:34.425Z,19.52
2022-11-22T01:36:06.548Z,19.55
2022-11-22T01:43:46.385Z,19.53
2022-11-22T01:51:22.465Z,19.53
2022-11-22T01:59:10.593Z,19.55
2022-11-22T02:06:50.633Z,19.58
2022-11-22T02:14:31.606Z,19.58
2022-11-22T02:21:54.826Z,19.55
2022-11-22T02:29:53.030Z,19.56
2022-11-22T02:37:33.056Z,19.56
2022-11-22T02:45:17.666Z,19.57
2022-11-22T02:52:52.688Z,19.54
2022-11-22T03:00:28.363Z,19.62
2022-11-22T03:08:09.142Z,19.52
2022-11-22T03:15:50.494Z,19.53
2022-11-22T03:23:22.480Z,19.49
2022-11-22T03:30:50.736Z,19.49
2022-11-22T03:38:20.880Z,19.52
2022-11-22T03:45:53.146Z,19.51
2022-11-22T03:53:17.159Z,19.53
2022-11-22T04:00:41.394Z,19.48
2022-11-22T04:08:05.623Z,19.51
2022-11-22T04:15:39.484Z,19.47
2022-11-22T04:23:07.581Z,19.44
2022-11-22T04:30:20.769Z,19.43
2022-11-22T04:37:45.448Z,19.4
2022-11-22T04:45:17.312Z,19.48
2022-11-22T04:52:47.876Z,19.49
2022-11-22T05:00:14.622Z,19.75
2022-11-22T05:07:16.695Z,20.08
2022-11-22T05:13:51.690Z,20.65
2022-11-22T05:20:15.749Z,20.85
2022-11-22T05:26:40.673Z,21.06
2022-11-22T05:33:13.684Z,21.1
2022-11-22T05:39:48.209Z,21.05
2022-11-22T05:46:19.564Z,21.01
2022-11-22T05:52:46.804Z,21.01
2022-11-22T05:59:28.053Z,20.91
2022-11-22T06:05:49.901Z,20.82
2022-11-22T06:12:22.635Z,20.7
2022-11-22T06:18:52.579Z,20.88
2022-11-22T06:25:27.729Z,21.4
2022-11-22T06:31:55.212Z,21.79
2022-11-22T06:38:38.743Z,22.23
2022-11-22T06:45:01.823Z,22.55
2022-11-22T06:51:34.108Z,22.89
2022-11-22T06:58:00.597Z,22.99
2022-11-22T07:04:27.739Z,22.71
2022-11-22T07:10:59.795Z,22.18
2022-11-22T07:17:24.686Z,22.22
2022-11-22T07:23:56.499Z,22.24
2022-11-22T07:30:26.773Z,22.13
2022-11-22T07:37:01.520Z,22.09
2022-11-22T07:43:37.363Z,22.14
2022-11-22T07:50:14.062Z,22.03
2022-11-22T07:56:47.798Z,22.38
2022-11-22T08:03:17.511Z,22.14
2022-11-22T08:10:03.994Z,22.38
2022-11-22T08:16:26.876Z,21.96
2022-11-22T08:22:55.819Z,21.9
2022-11-22T08:29:23.829Z,21.95
2022-11-22T08:35:47.890Z,21.72
2022-11-22T08:42:14.144Z,21.78
2022-11-22T08:48:49.308Z,21.85
2022-11-22T08:55:19.038Z,21.89
2022-11-22T09:01:54.459Z,22.02
2022-11-22T09:14:52.868Z,22.25
2022-11-22T09:21:14.926Z,21.99
2022-11-22T09:27:47.059Z,22.08
2022-11-22T09:34:51.701Z,22.29
2022-11-22T09:42:17.405Z,21.7
2022-11-22T09:50:41.326Z,21.57
2022-11-22T09:58:52.436Z,21.48
2022-11-22T10:07:17.274Z,21.49
2022-11-22T10:15:30.765Z,21.55
2022-11-22T10:23:27.783Z,21.52
2022-11-22T10:31:46.088Z,21.88
2022-11-22T10:40:11.826Z,22.2
2022-11-22T10:48:47.101Z,22.1
2022-11-22T10:57:09.159Z,22.2
2022-11-22T11:05:20.203Z,22.08
2022-11-22T11:13:36.064Z,22.07
2022-11-22T11:21:46.921Z,21.92
2022-11-22T11:29:53.435Z,21.68
2022-11-22T11:38:13.386Z,21.65
2022-11-22T11:46:20.107Z,21.69
2022-11-22T11:54:27.546Z,21.8
2022-11-22T12:02:19.464Z,21.88
2022-11-22T12:10:10.232Z,21.7
2022-11-22T12:18:38.781Z,21.47
2022-11-22T12:26:57.867Z,21.35
2022-11-22T12:34:54.733Z,21.29
2022-11-22T12:43:17.326Z,21.24
2022-11-22T12:51:49.831Z,21.19
2022-11-22T13:00:24.205Z,21.18
2022-11-22T13:08:30.686Z,21.11
2022-11-22T13:16:59.385Z,21.13
2022-11-22T13:25:25.879Z,21.09
2022-11-22T13:33:36.017Z,21.08
2022-11-22T13:42:08.215Z,21.06
2022-11-22T13:50:14.392Z,20.95
2022-11-22T13:58:11.292Z,20.97
2022-11-22T14:06:20.921Z,20.99
2022-11-22T14:14:25.357Z,20.95
2022-11-22T14:22:45.292Z,20.86
2022-11-22T14:31:05.182Z,20.73
2022-11-22T14:39:13.642Z,20.7
2022-11-22T14:47:25.260Z,20.65
2022-11-22T14:55:32.097Z,20.65
2022-11-22T15:03:47.107Z,20.58
2022-11-22T15:12:14.838Z,20.54
2022-11-22T16:01:17.915Z,20.67
2022-11-22T16:09:22.896Z,20.57
2022-11-22T16:17:36.083Z,20.49
2022-11-22T16:25:50.850Z,20.53
2022-11-22T16:34:03.058Z,20.43
2022-11-22T16:41:54.186Z,20.38
2022-11-22T16:49:43.662Z,20.33
2022-11-22T16:57:35.824Z,20.31
2022-11-22T17:05:31.897Z,20.24
2022-11-22T17:13:10.831Z,20.33
2022-11-22T17:21:11.699Z,20.3
2022-11-22T17:29:00.065Z,20.25
2022-11-22T17:36:46.022Z,20.23
2022-11-22T17:44:28.055Z,20.26
2022-11-22T17:52:14.866Z,20.26
2022-11-22T17:59:54.881Z,20.24
2022-11-22T18:07:49.783Z,20.12
2022-11-22T18:15:37.496Z,20.09
2022-11-22T18:23:19.226Z,20.05
2022-11-22T18:30:55.097Z,20.06
2022-11-22T18:38:31.023Z,20.06
2022-11-22T18:46:14.971Z,20.11
2022-11-22T18:53:51.498Z,20.06
2022-11-22T19:01:45.777Z,20.05
2022-11-22T19:09:18.129Z,20.05
2022-11-22T19:16:58.971Z,20.22
2022-11-22T19:24:36.593Z,20.1
2022-11-22T19:32:16.053Z,20.08
2022-11-22T19:40:03.514Z,20.19
2022-11-22T19:47:42.180Z,20.14
2022-11-22T19:55:10.631Z,20.07
2022-11-22T20:02:48.291Z,20.06
2022-11-22T20:10:25.044Z,19.99
2022-11-22T20:18:18.952Z,19.97
2022-11-22T20:25:56.232Z,20.03
2022-11-22T20:33:45.480Z,19.99
2022-11-22T20:41:27.080Z,20.12
2022-11-22T20:49:10.936Z,20.1
2022-11-22T20:56:57.557Z,20.05
2022-11-22T21:04:38.052Z,19.99
2022-11-22T21:12:07.046Z,20.19
2022-11-22T21:19:49.650Z,20.08
2022-11-22T21:27:22.617Z,20.05
2022-11-22T21:35:14.926Z,20.15
2022-11-22T21:42:47.070Z,19.99
2022-11-22T21:50:31.371Z,20.01
2022-11-22T21:58:15.661Z,20.05
2022-11-22T22:06:04.119Z,19.88
2022-11-22T22:13:46.622Z,19.83
2022-11-22T22:21:22.975Z,19.86
2022-11-22T22:29:19.058Z,19.76
2022-11-22T22:37:12.518Z,19.77
2022-11-22T22:44:56.519Z,19.73
2022-11-22T22:52:44.438Z,19.78
2022-11-22T23:00:31.761Z,19.79
2022-11-22T23:08:08.135Z,19.77
2022-11-22T23:15:58.163Z,19.77
2022-11-22T23:23:43.246Z,19.73
2022-11-22T23:31:29.839Z,19.76
2022-11-22T23:39:18.521Z,19.72
2022-11-22T23:47:07.106Z,19.95
2022-11-22T23:54:49.552Z,19.79
